Time;durP1;ratioP1;P1;durP2;ratioP2;P2;SDS_P1;SDS_P2;PMS_P1;PMS_P2;Temp;Humidity;BMP_temperature;BMP_pressure;BME280_temperature;BME280_humidity;BME280_pressure;Samples;Min_cycle;Max_cycle;Signal;HPM_P1;HPM_P2
2023/09/14 00:01:38;;;;;;;21.45;10.88;;;;;;;21.47;53.25;100416.00;31472900;28;20052;-77
2023/09/14 00:16:40;;;;;;;29.38;12.20;;;;;;;21.27;53.67;100419.50;31464198;28;20049;-78
2023/09/14 00:31:42;;;;;;;28.58;12.43;;;;;;;21.24;53.93;100409.47;31487251;28;20483;-76
2023/09/14 00:46:45;;;;;;;28.50;12.95;;;;;;;21.08;54.26;100394.16;31466923;28;20056;-77
2023/09/14 01:01:47;;;;;;;25.02;13.02;;;;;;;20.92;56.71;100392.72;31490849;28;20416;-77
2023/09/14 01:17:24;;;;;;;28.20;14.57;;;;;;;20.74;58.01;100382.72;31481451;28;20144;-76
2023/09/14 01:32:27;;;;;;;21.00;12.70;;;;;;;20.76;57.79;100385.00;31548889;28;20048;-88
2023/09/14 01:47:29;;;;;;;29.35;13.93;;;;;;;20.62;59.22;100383.78;31516532;28;20076;-87
2023/09/14 02:02:31;;;;;;;25.92;13.73;;;;;;;20.53;63.41;100389.44;31506025;28;20056;-87
2023/09/14 02:17:34;;;;;;;26.92;13.55;;;;;;;20.30;65.58;100388.34;31517591;28;20070;-89
2023/09/14 02:32:36;;;;;;;23.35;13.23;;;;;;;20.45;65.96;100388.31;31525914;28;20101;-89
2023/09/14 02:47:38;;;;;;;22.20;12.43;;;;;;;20.42;65.53;100406.59;31503441;28;20490;-89
2023/09/14 03:02:40;;;;;;;23.92;13.35;;;;;;;20.25;67.32;100418.56;31496687;28;20041;-89
2023/09/14 03:17:42;;;;;;;26.92;11.40;;;;;;;20.15;67.20;100417.13;31512813;28;20048;-89
2023/09/14 03:32:44;;;;;;;22.15;11.75;;;;;;;20.02;68.66;100401.66;31579339;28;20035;-90
2023/09/14 03:47:49;;;;;;;30.10;12.00;;;;;;;20.11;70.41;100411.81;31542265;28;20059;-88
2023/09/14 04:02:51;;;;;;;19.00;10.52;;;;;;;20.19;70.46;100420.47;31504160;28;20493;-89
2023/09/14 04:17:54;;;;;;;28.50;15.35;;;;;;;20.27;71.03;100432.63;31530634;28;20390;-88
2023/09/14 04:32:56;;;;;;;26.48;12.05;;;;;;;20.75;70.12;100431.13;31480664;28;20060;-76
2023/09/14 04:47:59;;;;;;;34.95;11.43;;;;;;;20.68;69.07;100436.28;31470626;28;20054;-77
2023/09/14 05:03:04;;;;;;;23.45;10.68;;;;;;;21.54;67.84;100440.41;31462836;28;20143;-77
2023/09/14 05:18:07;;;;;;;24.05;11.27;;;;;;;22.24;66.85;100437.31;31467941;28;20092;-76
2023/09/14 05:33:09;;;;;;;18.67;11.10;;;;;;;23.14;67.02;100456.06;31477981;28;20060;-77
2023/09/14 05:48:11;;;;;;;29.95;10.80;;;;;;;24.33;66.01;100469.72;31505811;28;20391;-79
2023/09/14 06:03:14;;;;;;;17.40;10.70;;;;;;;25.45;64.25;100437.63;31506198;28;20056;-81
2023/09/14 06:18:17;;;;;;;17.67;11.60;;;;;;;25.67;63.75;100436.03;31511656;28;20080;-85
2023/09/14 06:33:19;;;;;;;18.07;8.77;;;;;;;24.41;70.48;100434.66;31502311;28;20060;-87
2023/09/14 06:48:21;;;;;;;30.30;17.00;;;;;;;24.62;75.89;100451.78;31517710;28;20056;-88
2023/09/14 07:03:23;;;;;;;16.40;9.07;;;;;;;26.50;70.87;100459.66;31488336;28;20056;-89
2023/09/14 07:18:31;;;;;;;17.63;9.57;;;;;;;25.97;71.82;100464.66;31498146;28;20162;-89
2023/09/14 07:33:33;;;;;;;15.45;9.93;;;;;;;27.25;72.87;100487.78;31495685;28;20069;-89
2023/09/14 07:48:36;;;;;;;21.60;9.80;;;;;;;26.71;72.07;100480.22;31507649;28;20059;-84
2023/09/14 08:03:38;;;;;;;27.70;15.53;;;;;;;26.23;75.02;100468.97;31478529;28;20059;-83
2023/09/14 08:18:40;;;;;;;20.43;9.37;;;;;;;28.37;71.81;100452.72;31499476;28;20040;-76
2023/09/14 08:33:42;;;;;;;18.67;8.60;;;;;;;30.97;63.48;100468.31;31486535;28;20057;-84
2023/09/14 08:48:51;;;;;;;17.77;8.30;;;;;;;31.84;57.28;100469.09;31489742;28;20060;-81
2023/09/14 09:03:54;;;;;;;16.80;8.00;;;;;;;32.25;53.21;100460.91;31477430;28;20054;-77
2023/09/14 09:19:04;;;;;;;9.05;5.47;;;;;;;33.12;47.07;100437.88;31489526;28;20047;-73
2023/09/14 09:34:14;;;;;;;12.00;6.70;;;;;;;33.65;45.38;100434.09;31492680;28;20079;-82
2023/09/14 09:49:18;;;;;;;9.50;5.60;;;;;;;33.93;43.10;100411.22;31471471;28;20052;-85
2023/09/14 10:04:21;;;;;;;11.57;5.00;;;;;;;33.95;39.43;100402.19;31506083;28;20048;-86
2023/09/14 10:19:24;;;;;;;14.30;5.57;;;;;;;34.48;37.58;100384.81;31493288;28;20436;-82
2023/09/14 10:34:29;;;;;;;7.95;5.32;;;;;;;34.81;35.65;100366.41;31475213;28;20497;-72
2023/09/14 10:49:34;;;;;;;17.13;7.50;;;;;;;36.03;34.97;100363.91;31481450;28;20040;-74
2023/09/14 11:05:11;;;;;;;6.55;4.97;;;;;;;36.49;35.40;100344.06;31473746;28;20574;-74
2023/09/14 11:20:19;;;;;;;11.98;4.70;;;;;;;37.32;34.04;100333.09;31470000;28;20478;-75
2023/09/14 11:35:38;;;;;;;11.93;5.82;;;;;;;37.19;32.14;100322.25;31465770;28;20076;-74
2023/09/14 11:50:47;;;;;;;15.70;5.85;;;;;;;33.34;36.76;100302.03;31476914;28;20096;-77
2023/09/14 12:05:54;;;;;;;15.07;5.32;;;;;;;32.38;38.83;100303.38;31468966;28;20421;-75
2023/09/14 12:20:58;;;;;;;8.70;4.55;;;;;;;32.43;38.19;100291.94;31462297;28;20060;-73
2023/09/14 12:36:00;;;;;;;13.52;7.22;;;;;;;31.94;39.32;100281.19;31482223;28;20052;-73
2023/09/14 12:51:06;;;;;;;5.85;3.38;;;;;;;31.63;39.83;100262.88;31485263;28;20118;-75
2023/09/14 13:06:08;;;;;;;14.52;5.13;;;;;;;31.75;41.14;100252.78;31489969;28;20088;-71
2023/09/14 13:21:11;;;;;;;9.73;3.95;;;;;;;31.45;41.64;100259.09;31491806;28;20418;-72
2023/09/14 13:36:13;;;;;;;6.68;3.28;;;;;;;31.02;41.40;100268.38;31492509;28;20064;-72
2023/09/14 13:51:15;;;;;;;5.72;4.22;;;;;;;30.89;42.00;100249.69;31486369;28;20048;-72
2023/09/14 14:06:18;;;;;;;6.28;3.10;;;;;;;30.61;43.33;100235.78;31486117;28;20144;-75
2023/09/14 14:21:21;;;;;;;7.05;4.13;;;;;;;30.58;43.32;100234.81;31483872;28;20082;-73
2023/09/14 14:36:23;;;;;;;10.82;4.00;;;;;;;30.34;42.89;100236.00;31476911;28;20054;-73
2023/09/14 14:51:26;;;;;;;24.80;10.50;;;;;;;30.11;43.19;100224.69;31477121;28;20044;-73
2023/09/14 15:06:29;;;;;;;10.45;3.97;;;;;;;29.89;43.73;100230.88;31485306;28;20099;-73
2023/09/14 15:21:31;;;;;;;7.18;3.85;;;;;;;29.38;43.07;100233.47;31481401;28;20523;-79
2023/09/14 15:36:35;;;;;;;13.00;6.35;;;;;;;28.88;43.00;100229.06;31469565;28;20052;-73
2023/09/14 15:51:37;;;;;;;11.77;4.72;;;;;;;28.43;43.58;100235.59;31468583;28;20139;-74
2023/09/14 16:06:39;;;;;;;9.87;4.17;;;;;;;27.93;44.08;100240.09;31473209;28;20063;-74
2023/09/14 16:21:43;;;;;;;13.57;8.02;;;;;;;27.60;44.68;100249.09;31470460;28;20048;-73
2023/09/14 16:36:45;;;;;;;28.95;12.38;;;;;;;27.27;46.18;100278.22;31464661;28;20516;-72
2023/09/14 16:51:51;;;;;;;27.00;10.93;;;;;;;26.99;46.61;100292.56;31460081;28;20056;-74
2023/09/14 17:06:55;;;;;;;17.00;10.38;;;;;;;26.65;47.67;100295.78;31472633;28;20094;-81
2023/09/14 17:21:58;;;;;;;14.45;6.80;;;;;;;26.35;48.77;100306.25;31498890;28;20048;-73
2023/09/14 17:37:00;;;;;;;14.90;6.87;;;;;;;26.06;49.75;100311.31;31461778;28;20052;-71
2023/09/14 17:52:03;;;;;;;23.87;9.60;;;;;;;26.09;50.04;100315.84;31456776;28;20456;-73
2023/09/14 18:07:11;;;;;;;28.92;12.43;;;;;;;26.22;50.79;100317.25;31489355;28;20049;-78
2023/09/14 18:22:13;;;;;;;15.75;6.07;;;;;;;26.41;50.92;100318.09;31480029;28;20086;-75
2023/09/14 18:37:16;;;;;;;8.77;4.60;;;;;;;26.49;52.25;100302.28;31483159;28;20117;-75
2023/09/14 18:52:18;;;;;;;6.37;3.97;;;;;;;26.52;52.35;100323.50;31476537;28;20410;-76
2023/09/14 19:07:22;;;;;;;8.05;4.88;;;;;;;26.33;52.95;100329.03;31483445;28;20044;-76
2023/09/14 19:22:24;;;;;;;10.60;6.33;;;;;;;25.98;54.15;100338.22;31483163;28;20111;-76
2023/09/14 19:37:27;;;;;;;11.43;6.87;;;;;;;25.51;55.95;100339.59;31468600;28;20083;-78
2023/09/14 19:52:30;;;;;;;12.05;6.45;;;;;;;25.08;57.74;100343.63;31475309;28;20060;-76
2023/09/14 20:07:34;;;;;;;13.00;6.78;;;;;;;24.74;60.79;100339.47;31476171;28;20044;-78
2023/09/14 20:22:36;;;;;;;;;;;;;;;24.62;66.22;100341.50;31487147;28;20080;-80
2023/09/14 20:37:39;;;;;;;14.30;7.05;;;;;;;24.45;66.77;100351.91;31521539;28;20039;-79
2023/09/14 20:52:46;;;;;;;17.13;6.65;;;;;;;24.31;69.94;100348.19;31480710;28;20048;-79
2023/09/14 21:07:48;;;;;;;15.57;8.30;;;;;;;24.18;71.41;100338.81;31499907;28;20052;-80
2023/09/14 21:22:50;;;;;;;12.75;6.97;;;;;;;24.14;72.80;100348.16;31515012;28;20465;-81
2023/09/14 21:37:52;;;;;;;18.75;7.95;;;;;;;24.02;73.86;100351.47;31516295;28;20053;-73
2023/09/14 21:52:55;;;;;;;11.20;7.30;;;;;;;23.78;76.28;100361.03;31499414;28;20090;-75
2023/09/14 22:07:57;;;;;;;14.88;7.53;;;;;;;23.67;78.33;100354.72;31503621;28;20509;-74
2023/09/14 22:22:59;;;;;;;12.77;7.70;;;;;;;23.50;81.57;100353.91;31483577;28;20110;-73
2023/09/14 22:38:01;;;;;;;15.65;8.88;;;;;;;23.47;82.27;100350.91;31480867;28;20492;-74
2023/09/14 22:53:03;;;;;;;21.13;10.32;;;;;;;23.27;84.77;100356.66;31484992;28;20132;-73
2023/09/14 23:08:08;;;;;;;11.60;7.40;;;;;;;23.22;85.90;100340.75;31483872;28;20044;-75
2023/09/14 23:23:10;;;;;;;11.70;7.55;;;;;;;23.03;89.03;100339.72;31486790;28;20095;-73
2023/09/14 23:38:12;;;;;;;10.77;6.45;;;;;;;22.92;89.70;100326.56;31477565;28;20060;-74
2023/09/14 23:53:14;;;;;;;10.25;6.55;;;;;;;23.00;92.08;100316.53;31474595;28;20513;-73
